sensor_id;sensor_type;location;lat;lon;timestamp;P1;durP1;ratioP1;P2;durP2;ratioP2
69789;SDS011;57064;52.046;4.800;2022-11-11T00:00:32;33.17;;;13.18;;
69789;SDS011;57064;52.046;4.800;2022-11-11T00:02:58;32.45;;;15.05;;
69789;SDS011;57064;52.046;4.800;2022-11-11T00:05:24;30.70;;;14.90;;
69789;SDS011;57064;52.046;4.800;2022-11-11T00:07:52;33.25;;;14.93;;
69789;SDS011;57064;52.046;4.800;2022-11-11T00:10:23;31.30;;;14.70;;
69789;SDS011;57064;52.046;4.800;2022-11-11T00:12:53;32.72;;;16.25;;
69789;SDS011;57064;52.046;4.800;2022-11-11T00:15:26;39.97;;;15.82;;
69789;SDS011;57064;52.046;4.800;2022-11-11T00:17:53;39.38;;;17.95;;
69789;SDS011;57064;52.046;4.800;2022-11-11T00:20:38;41.10;;;18.35;;
69789;SDS011;57064;52.046;4.800;2022-11-11T00:23:24;37.80;;;19.67;;
69789;SDS011;57064;52.046;4.800;2022-11-11T00:26:10;34.60;;;17.27;;
69789;SDS011;57064;52.046;4.800;2022-11-11T00:28:38;39.47;;;18.15;;
69789;SDS011;57064;52.046;4.800;2022-11-11T00:31:05;40.65;;;19.00;;
69789;SDS011;57064;52.046;4.800;2022-11-11T00:33:36;38.25;;;18.88;;
69789;SDS011;57064;52.046;4.800;2022-11-11T00:36:02;40.58;;;17.88;;
69789;SDS011;57064;52.046;4.800;2022-11-11T00:38:29;47.60;;;21.40;;
69789;SDS011;57064;52.046;4.800;2022-11-11T00:41:17;44.63;;;19.77;;
69789;SDS011;57064;52.046;4.800;2022-11-11T00:43:44;39.88;;;19.58;;
69789;SDS011;57064;52.046;4.800;2022-11-11T00:46:12;45.75;;;21.52;;
69789;SDS011;57064;52.046;4.800;2022-11-11T00:48:58;49.90;;;22.58;;
69789;SDS011;57064;52.046;4.800;2022-11-11T00:51:43;52.28;;;22.55;;
69789;SDS011;57064;52.046;4.800;2022-11-11T00:54:09;45.28;;;21.00;;
69789;SDS011;57064;52.046;4.800;2022-11-11T00:56:35;45.22;;;21.23;;
69789;SDS011;57064;52.046;4.800;2022-11-11T00:59:02;43.90;;;21.52;;
69789;SDS011;57064;52.046;4.800;2022-11-11T01:01:29;40.30;;;19.98;;
69789;SDS011;57064;52.046;4.800;2022-11-11T01:03:56;49.03;;;22.23;;
69789;SDS011;57064;52.046;4.800;2022-11-11T01:06:23;45.95;;;22.65;;
69789;SDS011;57064;52.046;4.800;2022-11-11T01:08:49;48.83;;;21.58;;
69789;SDS011;57064;52.046;4.800;2022-11-11T01:11:17;57.47;;;24.98;;
69789;SDS011;57064;52.046;4.800;2022-11-11T01:13:44;50.13;;;22.27;;
69789;SDS011;57064;52.046;4.800;2022-11-11T01:16:12;53.08;;;21.88;;
69789;SDS011;57064;52.046;4.800;2022-11-11T01:18:40;54.20;;;23.00;;
69789;SDS011;57064;52.046;4.800;2022-11-11T01:21:08;54.90;;;23.75;;
69789;SDS011;57064;52.046;4.800;2022-11-11T01:23:37;50.35;;;22.65;;
69789;SDS011;57064;52.046;4.800;2022-11-11T01:26:05;57.75;;;21.00;;
69789;SDS011;57064;52.046;4.800;2022-11-11T01:28:37;45.92;;;19.83;;
69789;SDS011;57064;52.046;4.800;2022-11-11T01:31:04;53.15;;;22.67;;
69789;SDS011;57064;52.046;4.800;2022-11-11T01:33:34;48.40;;;21.88;;
69789;SDS011;57064;52.046;4.800;2022-11-11T01:36:04;60.75;;;26.23;;
69789;SDS011;57064;52.046;4.800;2022-11-11T01:38:41;53.92;;;23.85;;
69789;SDS011;57064;52.046;4.800;2022-11-11T01:41:11;51.88;;;22.05;;
69789;SDS011;57064;52.046;4.800;2022-11-11T01:43:58;57.17;;;23.58;;
69789;SDS011;57064;52.046;4.800;2022-11-11T01:49:19;56.47;;;22.50;;
69789;SDS011;57064;52.046;4.800;2022-11-11T01:52:12;50.08;;;22.95;;
69789;SDS011;57064;52.046;4.800;2022-11-11T01:54:45;55.80;;;24.75;;
69789;SDS011;57064;52.046;4.800;2022-11-11T01:59:52;53.10;;;22.55;;
69789;SDS011;57064;52.046;4.800;2022-11-11T02:02:28;55.83;;;23.00;;
69789;SDS011;57064;52.046;4.800;2022-11-11T02:05:00;51.67;;;22.00;;
69789;SDS011;57064;52.046;4.800;2022-11-11T02:07:46;54.92;;;23.23;;
69789;SDS011;57064;52.046;4.800;2022-11-11T02:10:13;49.03;;;20.85;;
69789;SDS011;57064;52.046;4.800;2022-11-11T02:12:42;53.78;;;22.25;;
69789;SDS011;57064;52.046;4.800;2022-11-11T02:15:27;50.97;;;22.75;;
69789;SDS011;57064;52.046;4.800;2022-11-11T02:17:53;55.03;;;23.13;;
69789;SDS011;57064;52.046;4.800;2022-11-11T02:20:26;58.38;;;22.30;;
69789;SDS011;57064;52.046;4.800;2022-11-11T02:23:02;57.13;;;23.27;;
69789;SDS011;57064;52.046;4.800;2022-11-11T02:25:46;63.83;;;24.38;;
69789;SDS011;57064;52.046;4.800;2022-11-11T02:28:13;64.65;;;26.23;;
69789;SDS011;57064;52.046;4.800;2022-11-11T02:30:40;72.22;;;27.75;;
69789;SDS011;57064;52.046;4.800;2022-11-11T02:33:05;63.83;;;26.15;;
69789;SDS011;57064;52.046;4.800;2022-11-11T02:35:36;66.85;;;27.45;;
69789;SDS011;57064;52.046;4.800;2022-11-11T02:38:05;65.45;;;26.15;;
69789;SDS011;57064;52.046;4.800;2022-11-11T02:40:42;58.95;;;25.95;;
69789;SDS011;57064;52.046;4.800;2022-11-11T02:43:28;67.60;;;25.30;;
69789;SDS011;57064;52.046;4.800;2022-11-11T02:45:56;71.38;;;25.95;;
69789;SDS011;57064;52.046;4.800;2022-11-11T02:48:22;63.42;;;25.75;;
69789;SDS011;57064;52.046;4.800;2022-11-11T02:50:49;63.75;;;25.40;;
69789;SDS011;57064;52.046;4.800;2022-11-11T02:53:15;67.35;;;26.58;;
69789;SDS011;57064;52.046;4.800;2022-11-11T02:55:41;60.20;;;24.25;;
69789;SDS011;57064;52.046;4.800;2022-11-11T02:58:08;63.60;;;26.23;;
69789;SDS011;57064;52.046;4.800;2022-11-11T03:00:34;59.20;;;22.88;;
69789;SDS011;57064;52.046;4.800;2022-11-11T03:03:00;54.15;;;24.83;;
69789;SDS011;57064;52.046;4.800;2022-11-11T03:05:26;54.50;;;23.00;;
69789;SDS011;57064;52.046;4.800;2022-11-11T03:07:52;59.35;;;24.55;;
69789;SDS011;57064;52.046;4.800;2022-11-11T03:10:18;57.30;;;23.05;;
69789;SDS011;57064;52.046;4.800;2022-11-11T03:12:44;52.78;;;24.08;;
69789;SDS011;57064;52.046;4.800;2022-11-11T03:15:10;55.90;;;23.60;;
69789;SDS011;57064;52.046;4.800;2022-11-11T03:17:36;61.95;;;22.60;;
69789;SDS011;57064;52.046;4.800;2022-11-11T03:23:04;56.50;;;21.92;;
69789;SDS011;57064;52.046;4.800;2022-11-11T03:25:32;50.55;;;21.67;;
69789;SDS011;57064;52.046;4.800;2022-11-11T03:28:12;55.47;;;21.30;;
69789;SDS011;57064;52.046;4.800;2022-11-11T03:30:40;49.08;;;20.88;;
69789;SDS011;57064;52.046;4.800;2022-11-11T03:33:07;57.08;;;22.80;;
69789;SDS011;57064;52.046;4.800;2022-11-11T03:35:34;60.20;;;23.20;;
69789;SDS011;57064;52.046;4.800;2022-11-11T03:38:01;49.10;;;19.58;;
69789;SDS011;57064;52.046;4.800;2022-11-11T03:40:44;56.05;;;22.50;;
69789;SDS011;57064;52.046;4.800;2022-11-11T03:43:11;54.53;;;22.73;;
69789;SDS011;57064;52.046;4.800;2022-11-11T03:45:39;55.90;;;23.08;;
69789;SDS011;57064;52.046;4.800;2022-11-11T03:48:06;61.22;;;22.73;;
69789;SDS011;57064;52.046;4.800;2022-11-11T03:50:32;49.60;;;19.88;;
69789;SDS011;57064;52.046;4.800;2022-11-11T03:52:58;62.13;;;22.60;;
69789;SDS011;57064;52.046;4.800;2022-11-11T03:55:25;53.08;;;22.55;;
69789;SDS011;57064;52.046;4.800;2022-11-11T03:57:51;56.17;;;22.95;;
69789;SDS011;57064;52.046;4.800;2022-11-11T04:00:19;63.63;;;24.20;;
69789;SDS011;57064;52.046;4.800;2022-11-11T04:02:47;45.22;;;19.13;;
69789;SDS011;57064;52.046;4.800;2022-11-11T04:05:32;51.70;;;22.52;;
69789;SDS011;57064;52.046;4.800;2022-11-11T04:08:17;51.88;;;21.35;;
69789;SDS011;57064;52.046;4.800;2022-11-11T04:11:06;58.50;;;23.60;;
69789;SDS011;57064;52.046;4.800;2022-11-11T04:13:34;59.17;;;23.48;;
69789;SDS011;57064;52.046;4.800;2022-11-11T04:16:19;57.08;;;23.20;;
69789;SDS011;57064;52.046;4.800;2022-11-11T04:18:45;57.83;;;24.08;;
69789;SDS011;57064;52.046;4.800;2022-11-11T04:21:30;61.35;;;25.63;;
69789;SDS011;57064;52.046;4.800;2022-11-11T04:24:11;68.18;;;25.88;;
69789;SDS011;57064;52.046;4.800;2022-11-11T04:26:58;61.60;;;24.05;;
69789;SDS011;57064;52.046;4.800;2022-11-11T04:29:25;56.30;;;24.70;;
69789;SDS011;57064;52.046;4.800;2022-11-11T04:31:52;61.47;;;23.45;;
69789;SDS011;57064;52.046;4.800;2022-11-11T04:34:38;59.03;;;23.15;;
69789;SDS011;57064;52.046;4.800;2022-11-11T04:37:08;60.40;;;24.40;;
69789;SDS011;57064;52.046;4.800;2022-11-11T04:39:34;57.72;;;24.70;;
69789;SDS011;57064;52.046;4.800;2022-11-11T04:42:19;57.97;;;22.33;;
69789;SDS011;57064;52.046;4.800;2022-11-11T04:44:45;58.03;;;22.38;;
69789;SDS011;57064;52.046;4.800;2022-11-11T04:47:30;64.13;;;24.27;;
69789;SDS011;57064;52.046;4.800;2022-11-11T04:49:56;49.15;;;20.27;;
69789;SDS011;57064;52.046;4.800;2022-11-11T04:52:22;55.75;;;21.67;;
69789;SDS011;57064;52.046;4.800;2022-11-11T04:54:52;54.63;;;21.40;;
69789;SDS011;57064;52.046;4.800;2022-11-11T04:57:41;53.15;;;21.60;;
69789;SDS011;57064;52.046;4.800;2022-11-11T05:00:09;48.22;;;21.70;;
69789;SDS011;57064;52.046;4.800;2022-11-11T05:02:37;53.38;;;20.55;;
69789;SDS011;57064;52.046;4.800;2022-11-11T05:05:22;53.58;;;20.42;;
69789;SDS011;57064;52.046;4.800;2022-11-11T05:07:49;54.97;;;21.23;;
69789;SDS011;57064;52.046;4.800;2022-11-11T05:10:34;49.35;;;22.23;;
69789;SDS011;57064;52.046;4.800;2022-11-11T05:13:01;50.42;;;20.45;;
69789;SDS011;57064;52.046;4.800;2022-11-11T05:15:46;50.78;;;20.75;;
69789;SDS011;57064;52.046;4.800;2022-11-11T05:18:32;45.38;;;19.70;;
69789;SDS011;57064;52.046;4.800;2022-11-11T05:21:35;47.70;;;21.55;;
69789;SDS011;57064;52.046;4.800;2022-11-11T05:24:01;46.67;;;20.73;;
69789;SDS011;57064;52.046;4.800;2022-11-11T05:26:45;55.03;;;21.80;;
69789;SDS011;57064;52.046;4.800;2022-11-11T05:29:11;52.05;;;21.52;;
69789;SDS011;57064;52.046;4.800;2022-11-11T05:31:37;48.17;;;20.40;;
69789;SDS011;57064;52.046;4.800;2022-11-11T05:34:03;41.78;;;20.05;;
69789;SDS011;57064;52.046;4.800;2022-11-11T05:36:29;46.72;;;19.70;;
69789;SDS011;57064;52.046;4.800;2022-11-11T05:38:55;45.38;;;20.15;;
69789;SDS011;57064;52.046;4.800;2022-11-11T05:41:21;41.15;;;19.52;;
69789;SDS011;57064;52.046;4.800;2022-11-11T05:43:48;46.25;;;20.60;;
69789;SDS011;57064;52.046;4.800;2022-11-11T05:46:14;46.58;;;21.63;;
69789;SDS011;57064;52.046;4.800;2022-11-11T05:48:40;40.10;;;18.92;;
69789;SDS011;57064;52.046;4.800;2022-11-11T05:51:26;38.53;;;17.77;;
69789;SDS011;57064;52.046;4.800;2022-11-11T05:53:52;44.20;;;20.52;;
69789;SDS011;57064;52.046;4.800;2022-11-11T05:56:19;46.25;;;20.67;;
69789;SDS011;57064;52.046;4.800;2022-11-11T05:58:45;43.80;;;19.50;;
69789;SDS011;57064;52.046;4.800;2022-11-11T06:01:11;48.45;;;20.38;;
69789;SDS011;57064;52.046;4.800;2022-11-11T06:03:37;38.72;;;18.75;;
69789;SDS011;57064;52.046;4.800;2022-11-11T06:06:03;40.33;;;20.00;;
69789;SDS011;57064;52.046;4.800;2022-11-11T06:08:30;49.42;;;21.48;;
69789;SDS011;57064;52.046;4.800;2022-11-11T06:10:56;42.22;;;20.13;;
69789;SDS011;57064;52.046;4.800;2022-11-11T06:13:22;42.88;;;19.95;;
69789;SDS011;57064;52.046;4.800;2022-11-11T06:15:48;43.67;;;20.17;;
69789;SDS011;57064;52.046;4.800;2022-11-11T06:18:14;46.33;;;20.77;;
69789;SDS011;57064;52.046;4.800;2022-11-11T06:20:40;38.05;;;18.20;;
69789;SDS011;57064;52.046;4.800;2022-11-11T06:23:06;45.20;;;19.67;;
69789;SDS011;57064;52.046;4.800;2022-11-11T06:25:32;41.90;;;20.25;;
69789;SDS011;57064;52.046;4.800;2022-11-11T06:28:18;49.35;;;21.40;;
69789;SDS011;57064;52.046;4.800;2022-11-11T06:30:44;45.10;;;21.60;;
69789;SDS011;57064;52.046;4.800;2022-11-11T06:33:10;46.33;;;21.20;;
69789;SDS011;57064;52.046;4.800;2022-11-11T06:35:37;47.10;;;23.02;;
69789;SDS011;57064;52.046;4.800;2022-11-11T06:38:04;53.15;;;24.40;;
69789;SDS011;57064;52.046;4.800;2022-11-11T06:40:31;44.97;;;21.10;;
69789;SDS011;57064;52.046;4.800;2022-11-11T06:42:58;50.50;;;21.40;;
69789;SDS011;57064;52.046;4.800;2022-11-11T06:45:25;46.03;;;21.48;;
69789;SDS011;57064;52.046;4.800;2022-11-11T06:47:52;55.35;;;23.27;;
69789;SDS011;57064;52.046;4.800;2022-11-11T06:50:18;52.70;;;23.27;;
69789;SDS011;57064;52.046;4.800;2022-11-11T06:52:45;51.40;;;23.05;;
69789;SDS011;57064;52.046;4.800;2022-11-11T06:55:11;49.03;;;22.13;;
69789;SDS011;57064;52.046;4.800;2022-11-11T06:57:38;60.58;;;25.42;;
69789;SDS011;57064;52.046;4.800;2022-11-11T07:00:04;43.67;;;22.10;;
69789;SDS011;57064;52.046;4.800;2022-11-11T07:02:31;42.90;;;21.15;;
69789;SDS011;57064;52.046;4.800;2022-11-11T07:04:58;47.88;;;21.15;;
69789;SDS011;57064;52.046;4.800;2022-11-11T07:07:24;47.60;;;22.75;;
69789;SDS011;57064;52.046;4.800;2022-11-11T07:09:50;47.60;;;21.58;;
69789;SDS011;57064;52.046;4.800;2022-11-11T07:12:16;47.08;;;19.20;;
69789;SDS011;57064;52.046;4.800;2022-11-11T07:14:43;40.80;;;19.45;;
69789;SDS011;57064;52.046;4.800;2022-11-11T07:17:09;38.47;;;18.38;;
69789;SDS011;57064;52.046;4.800;2022-11-11T07:19:35;39.58;;;19.00;;
69789;SDS011;57064;52.046;4.800;2022-11-11T07:22:01;38.78;;;17.92;;
69789;SDS011;57064;52.046;4.800;2022-11-11T07:24:27;37.00;;;16.63;;
69789;SDS011;57064;52.046;4.800;2022-11-11T07:26:53;45.13;;;19.65;;
69789;SDS011;57064;52.046;4.800;2022-11-11T07:29:19;40.10;;;18.55;;
69789;SDS011;57064;52.046;4.800;2022-11-11T07:31:45;42.35;;;18.55;;
69789;SDS011;57064;52.046;4.800;2022-11-11T07:34:11;44.72;;;18.92;;
69789;SDS011;57064;52.046;4.800;2022-11-11T07:36:37;42.80;;;17.60;;
69789;SDS011;57064;52.046;4.800;2022-11-11T07:39:03;44.80;;;20.85;;
69789;SDS011;57064;52.046;4.800;2022-11-11T07:41:29;40.85;;;20.50;;
69789;SDS011;57064;52.046;4.800;2022-11-11T07:43:55;49.90;;;20.52;;
69789;SDS011;57064;52.046;4.800;2022-11-11T07:46:21;52.53;;;22.15;;
69789;SDS011;57064;52.046;4.800;2022-11-11T07:48:47;44.75;;;22.15;;
69789;SDS011;57064;52.046;4.800;2022-11-11T07:51:13;44.30;;;20.17;;
69789;SDS011;57064;52.046;4.800;2022-11-11T07:53:39;52.03;;;21.77;;
69789;SDS011;57064;52.046;4.800;2022-11-11T07:56:06;45.95;;;20.63;;
69789;SDS011;57064;52.046;4.800;2022-11-11T07:58:32;44.45;;;21.92;;
69789;SDS011;57064;52.046;4.800;2022-11-11T08:00:58;40.58;;;20.35;;
69789;SDS011;57064;52.046;4.800;2022-11-11T08:03:24;44.03;;;19.88;;
69789;SDS011;57064;52.046;4.800;2022-11-11T08:05:50;39.75;;;19.75;;
69789;SDS011;57064;52.046;4.800;2022-11-11T08:08:16;40.70;;;19.30;;
69789;SDS011;57064;52.046;4.800;2022-11-11T08:10:44;42.30;;;21.23;;
69789;SDS011;57064;52.046;4.800;2022-11-11T08:13:10;45.35;;;21.15;;
69789;SDS011;57064;52.046;4.800;2022-11-11T08:15:55;43.45;;;20.58;;
69789;SDS011;57064;52.046;4.800;2022-11-11T08:18:22;44.13;;;20.33;;
69789;SDS011;57064;52.046;4.800;2022-11-11T08:20:48;40.15;;;19.52;;
69789;SDS011;57064;52.046;4.800;2022-11-11T08:23:14;38.70;;;20.70;;
69789;SDS011;57064;52.046;4.800;2022-11-11T08:25:46;35.55;;;19.73;;
69789;SDS011;57064;52.046;4.800;2022-11-11T08:28:12;43.85;;;19.67;;
69789;SDS011;57064;52.046;4.800;2022-11-11T08:30:38;38.13;;;19.65;;
69789;SDS011;57064;52.046;4.800;2022-11-11T08:33:04;36.97;;;18.80;;
69789;SDS011;57064;52.046;4.800;2022-11-11T08:35:31;37.53;;;18.55;;
69789;SDS011;57064;52.046;4.800;2022-11-11T08:38:00;37.80;;;18.23;;
69789;SDS011;57064;52.046;4.800;2022-11-11T08:40:27;34.92;;;18.15;;
69789;SDS011;57064;52.046;4.800;2022-11-11T08:42:56;36.67;;;19.08;;
69789;SDS011;57064;52.046;4.800;2022-11-11T08:45:23;35.15;;;17.48;;
69789;SDS011;57064;52.046;4.800;2022-11-11T08:47:49;36.67;;;18.55;;
69789;SDS011;57064;52.046;4.800;2022-11-11T08:50:16;39.30;;;18.63;;
69789;SDS011;57064;52.046;4.800;2022-11-11T08:52:45;35.70;;;18.50;;
69789;SDS011;57064;52.046;4.800;2022-11-11T08:55:12;34.83;;;17.02;;
69789;SDS011;57064;52.046;4.800;2022-11-11T08:57:38;35.17;;;17.67;;
69789;SDS011;57064;52.046;4.800;2022-11-11T09:00:05;36.28;;;17.75;;
69789;SDS011;57064;52.046;4.800;2022-11-11T09:02:32;32.08;;;16.33;;
69789;SDS011;57064;52.046;4.800;2022-11-11T09:04:58;26.08;;;14.50;;
69789;SDS011;57064;52.046;4.800;2022-11-11T09:07:25;29.05;;;15.90;;
69789;SDS011;57064;52.046;4.800;2022-11-11T09:09:51;26.27;;;13.93;;
69789;SDS011;57064;52.046;4.800;2022-11-11T09:12:17;25.70;;;13.75;;
69789;SDS011;57064;52.046;4.800;2022-11-11T09:14:44;29.95;;;14.90;;
69789;SDS011;57064;52.046;4.800;2022-11-11T09:17:10;27.05;;;15.27;;
69789;SDS011;57064;52.046;4.800;2022-11-11T09:19:36;27.42;;;14.60;;
69789;SDS011;57064;52.046;4.800;2022-11-11T09:22:02;31.48;;;14.98;;
69789;SDS011;57064;52.046;4.800;2022-11-11T09:24:28;22.30;;;13.20;;
69789;SDS011;57064;52.046;4.800;2022-11-11T09:26:54;28.55;;;14.38;;
69789;SDS011;57064;52.046;4.800;2022-11-11T09:29:20;27.75;;;14.82;;
69789;SDS011;57064;52.046;4.800;2022-11-11T09:31:46;22.73;;;13.25;;
69789;SDS011;57064;52.046;4.800;2022-11-11T09:34:12;28.40;;;14.13;;
69789;SDS011;57064;52.046;4.800;2022-11-11T09:36:38;27.50;;;14.00;;
69789;SDS011;57064;52.046;4.800;2022-11-11T09:39:05;27.85;;;14.82;;
69789;SDS011;57064;52.046;4.800;2022-11-11T09:44:28;23.20;;;13.18;;
69789;SDS011;57064;52.046;4.800;2022-11-11T09:47:19;24.17;;;12.43;;
69789;SDS011;57064;52.046;4.800;2022-11-11T09:50:07;22.30;;;11.98;;
69789;SDS011;57064;52.046;4.800;2022-11-11T09:52:53;18.60;;;10.77;;
69789;SDS011;57064;52.046;4.800;2022-11-11T09:55:43;22.50;;;11.60;;
69789;SDS011;57064;52.046;4.800;2022-11-11T10:00:42;19.25;;;10.45;;
69789;SDS011;57064;52.046;4.800;2022-11-11T10:03:17;20.55;;;11.07;;
69789;SDS011;57064;52.046;4.800;2022-11-11T10:05:48;24.25;;;11.77;;
69789;SDS011;57064;52.046;4.800;2022-11-11T10:08:36;21.85;;;13.05;;
69789;SDS011;57064;52.046;4.800;2022-11-11T10:11:19;24.38;;;12.65;;
69789;SDS011;57064;52.046;4.800;2022-11-11T10:13:52;25.30;;;13.35;;
69789;SDS011;57064;52.046;4.800;2022-11-11T10:21:22;21.58;;;12.32;;
69789;SDS011;57064;52.046;4.800;2022-11-11T10:23:54;19.73;;;10.88;;
69789;SDS011;57064;52.046;4.800;2022-11-11T10:26:35;19.15;;;10.60;;
69789;SDS011;57064;52.046;4.800;2022-11-11T10:29:03;17.42;;;9.60;;
69789;SDS011;57064;52.046;4.800;2022-11-11T10:31:38;20.42;;;11.68;;
69789;SDS011;57064;52.046;4.800;2022-11-11T10:34:09;28.70;;;14.07;;
69789;SDS011;57064;52.046;4.800;2022-11-11T10:36:40;26.92;;;14.05;;
69789;SDS011;57064;52.046;4.800;2022-11-11T10:39:09;25.50;;;13.68;;
69789;SDS011;57064;52.046;4.800;2022-11-11T10:41:42;28.88;;;15.27;;
69789;SDS011;57064;52.046;4.800;2022-11-11T10:44:31;28.17;;;13.70;;
69789;SDS011;57064;52.046;4.800;2022-11-11T10:49:30;23.90;;;13.18;;
69789;SDS011;57064;52.046;4.800;2022-11-11T10:54:39;22.05;;;13.10;;
69789;SDS011;57064;52.046;4.800;2022-11-11T10:57:19;19.75;;;11.15;;
69789;SDS011;57064;52.046;4.800;2022-11-11T10:59:52;26.27;;;11.95;;
69789;SDS011;57064;52.046;4.800;2022-11-11T11:02:37;17.05;;;10.02;;
69789;SDS011;57064;52.046;4.800;2022-11-11T11:05:27;20.90;;;10.10;;
69789;SDS011;57064;52.046;4.800;2022-11-11T11:08:04;21.52;;;11.93;;
69789;SDS011;57064;52.046;4.800;2022-11-11T11:10:35;25.30;;;12.60;;
69789;SDS011;57064;52.046;4.800;2022-11-11T11:15:42;20.25;;;12.90;;
69789;SDS011;57064;52.046;4.800;2022-11-11T11:18:13;20.02;;;12.48;;
69789;SDS011;57064;52.046;4.800;2022-11-11T11:21:23;19.90;;;11.98;;
69789;SDS011;57064;52.046;4.800;2022-11-11T11:23:40;21.73;;;13.10;;
69789;SDS011;57064;52.046;4.800;2022-11-11T11:26:09;26.15;;;12.88;;
69789;SDS011;57064;52.046;4.800;2022-11-11T11:31:33;22.60;;;12.70;;
69789;SDS011;57064;52.046;4.800;2022-11-11T11:34:01;20.88;;;11.77;;
69789;SDS011;57064;52.046;4.800;2022-11-11T11:36:27;22.73;;;11.00;;
69789;SDS011;57064;52.046;4.800;2022-11-11T11:38:54;22.30;;;12.00;;
69789;SDS011;57064;52.046;4.800;2022-11-11T11:44:02;19.23;;;11.20;;
69789;SDS011;57064;52.046;4.800;2022-11-11T11:46:48;18.15;;;10.63;;
69789;SDS011;57064;52.046;4.800;2022-11-11T11:52:20;19.17;;;10.98;;
69789;SDS011;57064;52.046;4.800;2022-11-11T12:00:20;27.92;;;15.02;;
69789;SDS011;57064;52.046;4.800;2022-11-11T12:06:05;29.40;;;16.10;;
69789;SDS011;57064;52.046;4.800;2022-11-11T12:11:39;28.52;;;16.05;;
69789;SDS011;57064;52.046;4.800;2022-11-11T12:14:29;28.85;;;16.15;;
69789;SDS011;57064;52.046;4.800;2022-11-11T12:17:03;33.00;;;17.25;;
69789;SDS011;57064;52.046;4.800;2022-11-11T12:19:56;32.05;;;18.67;;
69789;SDS011;57064;52.046;4.800;2022-11-11T12:30:33;35.70;;;18.45;;
69789;SDS011;57064;52.046;4.800;2022-11-11T12:41:07;40.67;;;20.35;;
69789;SDS011;57064;52.046;4.800;2022-11-11T12:44:04;34.88;;;18.85;;
69789;SDS011;57064;52.046;4.800;2022-11-11T13:07:56;31.50;;;15.85;;
69789;SDS011;57064;52.046;4.800;2022-11-11T13:10:51;27.40;;;14.07;;
69789;SDS011;57064;52.046;4.800;2022-11-11T13:13:59;27.02;;;15.30;;
69789;SDS011;57064;52.046;4.800;2022-11-11T13:16:43;30.02;;;15.15;;
69789;SDS011;57064;52.046;4.800;2022-11-11T13:21:45;29.88;;;15.48;;
69789;SDS011;57064;52.046;4.800;2022-11-11T13:24:21;24.52;;;13.27;;
69789;SDS011;57064;52.046;4.800;2022-11-11T13:26:50;26.98;;;14.63;;
69789;SDS011;57064;52.046;4.800;2022-11-11T13:29:52;22.73;;;12.10;;
69789;SDS011;57064;52.046;4.800;2022-11-11T13:32:43;23.95;;;12.82;;
69789;SDS011;57064;52.046;4.800;2022-11-11T13:35:19;22.20;;;12.30;;
69789;SDS011;57064;52.046;4.800;2022-11-11T13:37:50;24.77;;;12.60;;
69789;SDS011;57064;52.046;4.800;2022-11-11T13:40:25;24.95;;;13.93;;
69789;SDS011;57064;52.046;4.800;2022-11-11T13:43:05;23.33;;;12.25;;
69789;SDS011;57064;52.046;4.800;2022-11-11T13:46:03;27.77;;;13.70;;
69789;SDS011;57064;52.046;4.800;2022-11-11T13:48:45;22.88;;;12.77;;
69789;SDS011;57064;52.046;4.800;2022-11-11T13:51:18;24.98;;;11.77;;
69789;SDS011;57064;52.046;4.800;2022-11-11T13:53:55;18.65;;;11.70;;
69789;SDS011;57064;52.046;4.800;2022-11-11T13:59:03;24.15;;;13.00;;
69789;SDS011;57064;52.046;4.800;2022-11-11T14:01:34;22.00;;;11.55;;
69789;SDS011;57064;52.046;4.800;2022-11-11T14:04:06;16.85;;;10.38;;
69789;SDS011;57064;52.046;4.800;2022-11-11T14:08:59;18.92;;;9.95;;
69789;SDS011;57064;52.046;4.800;2022-11-11T14:11:28;18.63;;;10.73;;
69789;SDS011;57064;52.046;4.800;2022-11-11T14:16:57;20.92;;;10.55;;
69789;SDS011;57064;52.046;4.800;2022-11-11T14:19:28;20.80;;;10.05;;
69789;SDS011;57064;52.046;4.800;2022-11-11T14:22:00;14.52;;;8.80;;
69789;SDS011;57064;52.046;4.800;2022-11-11T14:24:35;19.35;;;9.80;;
69789;SDS011;57064;52.046;4.800;2022-11-11T14:27:12;16.95;;;8.60;;
69789;SDS011;57064;52.046;4.800;2022-11-11T14:29:50;19.05;;;9.27;;
69789;SDS011;57064;52.046;4.800;2022-11-11T14:37:42;13.73;;;7.20;;
69789;SDS011;57064;52.046;4.800;2022-11-11T14:40:12;13.60;;;7.03;;
69789;SDS011;57064;52.046;4.800;2022-11-11T14:42:47;16.38;;;7.45;;
69789;SDS011;57064;52.046;4.800;2022-11-11T14:47:55;15.10;;;7.55;;
69789;SDS011;57064;52.046;4.800;2022-11-11T14:52:53;10.80;;;5.72;;
69789;SDS011;57064;52.046;4.800;2022-11-11T14:55:22;15.43;;;7.10;;
69789;SDS011;57064;52.046;4.800;2022-11-11T14:57:58;14.48;;;6.57;;
69789;SDS011;57064;52.046;4.800;2022-11-11T15:00:32;15.07;;;7.00;;
69789;SDS011;57064;52.046;4.800;2022-11-11T15:06:13;19.80;;;8.32;;
69789;SDS011;57064;52.046;4.800;2022-11-11T15:22:52;14.32;;;8.38;;
69789;SDS011;57064;52.046;4.800;2022-11-11T15:25:42;14.73;;;8.98;;
69789;SDS011;57064;52.046;4.800;2022-11-11T15:33:27;16.00;;;8.35;;
69789;SDS011;57064;52.046;4.800;2022-11-11T15:36:50;16.88;;;8.02;;
69789;SDS011;57064;52.046;4.800;2022-11-11T15:39:12;16.13;;;8.55;;
69789;SDS011;57064;52.046;4.800;2022-11-11T15:41:40;14.88;;;9.00;;
69789;SDS011;57064;52.046;4.800;2022-11-11T15:44:16;16.02;;;9.20;;
69789;SDS011;57064;52.046;4.800;2022-11-11T15:46:45;24.60;;;10.23;;
69789;SDS011;57064;52.046;4.800;2022-11-11T15:49:13;25.58;;;12.45;;
69789;SDS011;57064;52.046;4.800;2022-11-11T15:51:59;23.88;;;11.02;;
69789;SDS011;57064;52.046;4.800;2022-11-11T15:54:25;17.40;;;9.02;;
69789;SDS011;57064;52.046;4.800;2022-11-11T15:56:51;16.85;;;9.23;;
69789;SDS011;57064;52.046;4.800;2022-11-11T15:59:23;17.35;;;9.63;;
69789;SDS011;57064;52.046;4.800;2022-11-11T16:01:55;19.25;;;11.23;;
69789;SDS011;57064;52.046;4.800;2022-11-11T16:04:23;18.20;;;10.35;;
69789;SDS011;57064;52.046;4.800;2022-11-11T16:06:49;19.00;;;9.32;;
69789;SDS011;57064;52.046;4.800;2022-11-11T16:09:18;33.17;;;15.88;;
69789;SDS011;57064;52.046;4.800;2022-11-11T16:11:50;21.80;;;10.68;;
69789;SDS011;57064;52.046;4.800;2022-11-11T16:14:40;40.33;;;21.17;;
69789;SDS011;57064;52.046;4.800;2022-11-11T16:17:07;38.00;;;18.13;;
69789;SDS011;57064;52.046;4.800;2022-11-11T16:19:35;33.78;;;16.08;;
69789;SDS011;57064;52.046;4.800;2022-11-11T16:24:39;23.30;;;12.18;;
69789;SDS011;57064;52.046;4.800;2022-11-11T16:27:07;21.52;;;11.95;;
69789;SDS011;57064;52.046;4.800;2022-11-11T16:29:40;27.45;;;14.43;;
69789;SDS011;57064;52.046;4.800;2022-11-11T16:32:30;21.67;;;12.73;;
69789;SDS011;57064;52.046;4.800;2022-11-11T16:34:58;25.47;;;12.17;;
69789;SDS011;57064;52.046;4.800;2022-11-11T16:37:24;25.23;;;11.77;;
69789;SDS011;57064;52.046;4.800;2022-11-11T16:39:51;26.65;;;13.57;;
69789;SDS011;57064;52.046;4.800;2022-11-11T16:50:06;31.92;;;14.88;;
69789;SDS011;57064;52.046;4.800;2022-11-11T16:53:00;29.70;;;14.80;;
69789;SDS011;57064;52.046;4.800;2022-11-11T16:58:09;35.15;;;17.38;;
69789;SDS011;57064;52.046;4.800;2022-11-11T17:00:41;38.92;;;19.02;;
69789;SDS011;57064;52.046;4.800;2022-11-11T17:03:12;29.30;;;14.25;;
69789;SDS011;57064;52.046;4.800;2022-11-11T17:05:54;33.97;;;15.52;;
69789;SDS011;57064;52.046;4.800;2022-11-11T17:11:03;21.98;;;11.93;;
69789;SDS011;57064;52.046;4.800;2022-11-11T17:13:31;20.02;;;10.88;;